sensor_id;sensor_type;location;lat;lon;timestamp;temperature;humidity
314;DHT22;143;51.634;7.112;2023-03-16T00:01:04;3.50;99.90
314;DHT22;143;51.634;7.112;2023-03-16T00:03:30;3.80;99.90
314;DHT22;143;51.634;7.112;2023-03-16T00:05:55;3.40;99.90
314;DHT22;143;51.634;7.112;2023-03-16T00:08:21;3.70;99.90
314;DHT22;143;51.634;7.112;2023-03-16T00:10:47;3.50;99.90
314;DHT22;143;51.634;7.112;2023-03-16T00:13:17;3.60;99.90
314;DHT22;143;51.634;7.112;2023-03-16T00:15:53;3.50;99.90
314;DHT22;143;51.634;7.112;2023-03-16T00:18:20;3.60;99.90
314;DHT22;143;51.634;7.112;2023-03-16T00:20:51;3.60;99.90
314;DHT22;143;51.634;7.112;2023-03-16T00:23:17;3.70;99.90
314;DHT22;143;51.634;7.112;2023-03-16T00:25:43;3.50;99.90
314;DHT22;143;51.634;7.112;2023-03-16T00:28:08;3.50;99.90
314;DHT22;143;51.634;7.112;2023-03-16T00:30:34;3.50;99.90
314;DHT22;143;51.634;7.112;2023-03-16T00:33:00;3.50;99.90
314;DHT22;143;51.634;7.112;2023-03-16T00:35:26;3.50;99.90
314;DHT22;143;51.634;7.112;2023-03-16T00:37:52;3.30;99.90
314;DHT22;143;51.634;7.112;2023-03-16T00:40:22;3.60;99.90
314;DHT22;143;51.634;7.112;2023-03-16T00:42:48;3.20;99.90
314;DHT22;143;51.634;7.112;2023-03-16T00:45:13;3.50;99.90
314;DHT22;143;51.634;7.112;2023-03-16T00:47:39;3.50;99.90
314;DHT22;143;51.634;7.112;2023-03-16T00:50:06;3.30;99.90
314;DHT22;143;51.634;7.112;2023-03-16T00:52:33;3.20;99.90
314;DHT22;143;51.634;7.112;2023-03-16T00:54:59;3.30;99.90
314;DHT22;143;51.634;7.112;2023-03-16T00:57:27;3.40;99.90
314;DHT22;143;51.634;7.112;2023-03-16T00:59:54;3.30;99.90
314;DHT22;143;51.634;7.112;2023-03-16T01:02:20;3.20;99.90
314;DHT22;143;51.634;7.112;2023-03-16T01:04:49;3.50;99.90
314;DHT22;143;51.634;7.112;2023-03-16T01:07:16;3.30;99.90
314;DHT22;143;51.634;7.112;2023-03-16T01:09:42;3.20;99.90
314;DHT22;143;51.634;7.112;2023-03-16T01:12:12;3.50;99.90
314;DHT22;143;51.634;7.112;2023-03-16T01:14:39;3.60;99.90
314;DHT22;143;51.634;7.112;2023-03-16T01:17:06;3.60;99.90
314;DHT22;143;51.634;7.112;2023-03-16T01:19:34;3.60;99.90
314;DHT22;143;51.634;7.112;2023-03-16T01:22:07;3.40;99.90
314;DHT22;143;51.634;7.112;2023-03-16T01:24:34;3.40;99.90
314;DHT22;143;51.634;7.112;2023-03-16T01:27:01;3.40;99.90
314;DHT22;143;51.634;7.112;2023-03-16T01:29:27;3.60;99.90
314;DHT22;143;51.634;7.112;2023-03-16T01:31:53;3.80;99.90
314;DHT22;143;51.634;7.112;2023-03-16T01:34:20;3.90;99.90
314;DHT22;143;51.634;7.112;2023-03-16T01:36:47;3.80;99.90
314;DHT22;143;51.634;7.112;2023-03-16T01:39:14;3.50;99.90
314;DHT22;143;51.634;7.112;2023-03-16T01:41:40;3.60;99.90
314;DHT22;143;51.634;7.112;2023-03-16T01:44:13;3.80;99.90
314;DHT22;143;51.634;7.112;2023-03-16T01:46:39;3.40;99.90
314;DHT22;143;51.634;7.112;2023-03-16T01:49:13;3.90;99.90
314;DHT22;143;51.634;7.112;2023-03-16T01:54:34;3.90;99.90
314;DHT22;143;51.634;7.112;2023-03-16T01:57:06;3.80;99.90
314;DHT22;143;51.634;7.112;2023-03-16T01:59:38;3.70;99.90
314;DHT22;143;51.634;7.112;2023-03-16T02:02:05;3.70;99.90
314;DHT22;143;51.634;7.112;2023-03-16T02:07:08;3.70;99.90
314;DHT22;143;51.634;7.112;2023-03-16T02:09:36;3.70;99.90
314;DHT22;143;51.634;7.112;2023-03-16T02:12:04;3.70;99.90
314;DHT22;143;51.634;7.112;2023-03-16T02:14:30;3.70;99.90
314;DHT22;143;51.634;7.112;2023-03-16T02:16:56;3.80;99.90
314;DHT22;143;51.634;7.112;2023-03-16T02:19:39;4.00;99.90
314;DHT22;143;51.634;7.112;2023-03-16T02:22:09;3.80;99.90
314;DHT22;143;51.634;7.112;2023-03-16T02:24:36;3.80;99.90
314;DHT22;143;51.634;7.112;2023-03-16T02:27:09;3.80;99.90
314;DHT22;143;51.634;7.112;2023-03-16T02:32:16;3.80;99.90
314;DHT22;143;51.634;7.112;2023-03-16T02:34:42;3.90;99.90
314;DHT22;143;51.634;7.112;2023-03-16T02:37:09;4.00;99.90
314;DHT22;143;51.634;7.112;2023-03-16T02:39:36;3.80;99.90
314;DHT22;143;51.634;7.112;2023-03-16T02:42:02;4.00;99.90
314;DHT22;143;51.634;7.112;2023-03-16T02:44:34;3.80;99.90
314;DHT22;143;51.634;7.112;2023-03-16T02:47:08;3.80;99.90
314;DHT22;143;51.634;7.112;2023-03-16T02:49:39;3.90;99.90
314;DHT22;143;51.634;7.112;2023-03-16T02:52:06;4.00;99.90
314;DHT22;143;51.634;7.112;2023-03-16T02:54:32;3.90;99.90
314;DHT22;143;51.634;7.112;2023-03-16T02:56:58;3.80;99.90
314;DHT22;143;51.634;7.112;2023-03-16T02:59:24;3.80;99.90
314;DHT22;143;51.634;7.112;2023-03-16T03:01:49;4.00;99.90
314;DHT22;143;51.634;7.112;2023-03-16T03:04:16;4.00;99.90
314;DHT22;143;51.634;7.112;2023-03-16T03:06:42;4.10;99.90
314;DHT22;143;51.634;7.112;2023-03-16T03:09:08;4.00;99.90
314;DHT22;143;51.634;7.112;2023-03-16T03:11:38;3.80;99.90
314;DHT22;143;51.634;7.112;2023-03-16T03:14:04;3.90;99.90
314;DHT22;143;51.634;7.112;2023-03-16T03:16:30;3.80;99.90
314;DHT22;143;51.634;7.112;2023-03-16T03:18:56;4.00;99.90
314;DHT22;143;51.634;7.112;2023-03-16T03:21:22;4.00;99.90
314;DHT22;143;51.634;7.112;2023-03-16T03:23:49;4.00;99.90
314;DHT22;143;51.634;7.112;2023-03-16T03:26:15;4.00;99.90
314;DHT22;143;51.634;7.112;2023-03-16T03:28:41;4.00;99.90
314;DHT22;143;51.634;7.112;2023-03-16T03:31:16;4.00;99.90
314;DHT22;143;51.634;7.112;2023-03-16T03:33:42;4.00;99.90
314;DHT22;143;51.634;7.112;2023-03-16T03:36:09;3.90;99.90
314;DHT22;143;51.634;7.112;2023-03-16T03:38:36;4.00;99.90
314;DHT22;143;51.634;7.112;2023-03-16T03:41:01;4.00;99.90
314;DHT22;143;51.634;7.112;2023-03-16T03:43:28;4.10;99.90
314;DHT22;143;51.634;7.112;2023-03-16T03:46:00;3.90;99.90
314;DHT22;143;51.634;7.112;2023-03-16T03:48:27;4.10;99.90
314;DHT22;143;51.634;7.112;2023-03-16T03:50:53;4.20;99.90
314;DHT22;143;51.634;7.112;2023-03-16T03:53:19;4.00;99.90
314;DHT22;143;51.634;7.112;2023-03-16T03:55:45;4.10;99.90
314;DHT22;143;51.634;7.112;2023-03-16T03:58:12;3.90;99.90
314;DHT22;143;51.634;7.112;2023-03-16T04:00:38;3.90;99.90
314;DHT22;143;51.634;7.112;2023-03-16T04:03:03;4.20;99.90
314;DHT22;143;51.634;7.112;2023-03-16T04:05:30;3.90;99.90
314;DHT22;143;51.634;7.112;2023-03-16T04:07:57;4.20;99.90
314;DHT22;143;51.634;7.112;2023-03-16T04:10:27;4.00;99.90
314;DHT22;143;51.634;7.112;2023-03-16T04:12:55;4.00;99.90
314;DHT22;143;51.634;7.112;2023-03-16T04:15:20;4.00;99.90
314;DHT22;143;51.634;7.112;2023-03-16T04:17:47;4.00;99.90
314;DHT22;143;51.634;7.112;2023-03-16T04:20:14;4.00;99.90
314;DHT22;143;51.634;7.112;2023-03-16T04:22:44;4.00;99.90
314;DHT22;143;51.634;7.112;2023-03-16T04:25:10;4.00;99.90
314;DHT22;143;51.634;7.112;2023-03-16T04:27:37;4.10;99.90
314;DHT22;143;51.634;7.112;2023-03-16T04:30:10;4.20;99.90
314;DHT22;143;51.634;7.112;2023-03-16T04:32:36;4.00;99.90
314;DHT22;143;51.634;7.112;2023-03-16T04:35:03;4.10;99.90
314;DHT22;143;51.634;7.112;2023-03-16T04:37:29;4.00;99.90
314;DHT22;143;51.634;7.112;2023-03-16T04:39:54;4.10;99.90
314;DHT22;143;51.634;7.112;2023-03-16T04:42:21;4.20;99.90
314;DHT22;143;51.634;7.112;2023-03-16T04:44:47;4.00;99.90
314;DHT22;143;51.634;7.112;2023-03-16T04:47:15;4.00;99.90
314;DHT22;143;51.634;7.112;2023-03-16T04:49:41;4.10;99.90
314;DHT22;143;51.634;7.112;2023-03-16T04:52:07;4.20;99.90
314;DHT22;143;51.634;7.112;2023-03-16T04:54:34;4.00;99.90
314;DHT22;143;51.634;7.112;2023-03-16T04:57:00;4.00;99.90
314;DHT22;143;51.634;7.112;2023-03-16T04:59:28;4.00;99.90
314;DHT22;143;51.634;7.112;2023-03-16T05:01:54;4.00;99.90
314;DHT22;143;51.634;7.112;2023-03-16T05:04:20;4.10;99.90
314;DHT22;143;51.634;7.112;2023-03-16T05:06:46;4.00;99.90
314;DHT22;143;51.634;7.112;2023-03-16T05:09:12;4.00;99.90
314;DHT22;143;51.634;7.112;2023-03-16T05:11:38;4.00;99.90
314;DHT22;143;51.634;7.112;2023-03-16T05:14:04;4.00;99.90
314;DHT22;143;51.634;7.112;2023-03-16T05:16:31;4.00;99.90
314;DHT22;143;51.634;7.112;2023-03-16T05:18:57;4.00;99.90
314;DHT22;143;51.634;7.112;2023-03-16T05:21:24;4.10;99.90
314;DHT22;143;51.634;7.112;2023-03-16T05:23:49;4.20;99.90
314;DHT22;143;51.634;7.112;2023-03-16T05:26:16;4.00;99.90
314;DHT22;143;51.634;7.112;2023-03-16T05:28:42;4.00;99.90
314;DHT22;143;51.634;7.112;2023-03-16T05:31:08;4.00;99.90
314;DHT22;143;51.634;7.112;2023-03-16T05:33:34;4.10;99.90
314;DHT22;143;51.634;7.112;2023-03-16T05:36:00;4.40;99.90
314;DHT22;143;51.634;7.112;2023-03-16T05:38:27;4.40;99.90
314;DHT22;143;51.634;7.112;2023-03-16T05:40:53;4.40;99.90
314;DHT22;143;51.634;7.112;2023-03-16T05:43:20;4.40;99.90
314;DHT22;143;51.634;7.112;2023-03-16T05:45:46;4.40;99.90
314;DHT22;143;51.634;7.112;2023-03-16T05:48:12;4.30;99.90
314;DHT22;143;51.634;7.112;2023-03-16T05:50:39;4.30;99.90
314;DHT22;143;51.634;7.112;2023-03-16T05:53:06;4.30;99.90
314;DHT22;143;51.634;7.112;2023-03-16T05:55:32;4.30;99.90
314;DHT22;143;51.634;7.112;2023-03-16T05:57:58;4.30;99.90
314;DHT22;143;51.634;7.112;2023-03-16T06:00:24;4.30;99.90
314;DHT22;143;51.634;7.112;2023-03-16T06:02:50;4.60;99.90
314;DHT22;143;51.634;7.112;2023-03-16T06:05:17;4.50;99.90
314;DHT22;143;51.634;7.112;2023-03-16T06:07:43;4.70;99.90
314;DHT22;143;51.634;7.112;2023-03-16T06:10:10;4.70;99.90
314;DHT22;143;51.634;7.112;2023-03-16T06:12:36;4.50;99.90
314;DHT22;143;51.634;7.112;2023-03-16T06:15:03;4.60;99.90
314;DHT22;143;51.634;7.112;2023-03-16T06:17:32;4.50;99.90
314;DHT22;143;51.634;7.112;2023-03-16T06:19:58;4.70;99.90
314;DHT22;143;51.634;7.112;2023-03-16T06:22:24;4.70;99.90
314;DHT22;143;51.634;7.112;2023-03-16T06:24:50;4.60;99.90
314;DHT22;143;51.634;7.112;2023-03-16T06:27:17;4.70;99.90
314;DHT22;143;51.634;7.112;2023-03-16T06:29:47;4.50;99.90
314;DHT22;143;51.634;7.112;2023-03-16T06:32:14;4.60;99.90
314;DHT22;143;51.634;7.112;2023-03-16T06:34:39;4.80;99.90
314;DHT22;143;51.634;7.112;2023-03-16T06:37:06;4.50;99.90
314;DHT22;143;51.634;7.112;2023-03-16T06:39:32;4.50;99.90
314;DHT22;143;51.634;7.112;2023-03-16T06:41:58;4.50;99.90
314;DHT22;143;51.634;7.112;2023-03-16T06:44:23;4.60;99.90
314;DHT22;143;51.634;7.112;2023-03-16T06:46:49;5.00;99.90
314;DHT22;143;51.634;7.112;2023-03-16T06:49:15;5.00;99.90
314;DHT22;143;51.634;7.112;2023-03-16T06:51:41;4.80;99.90
314;DHT22;143;51.634;7.112;2023-03-16T06:54:07;5.10;99.90
314;DHT22;143;51.634;7.112;2023-03-16T06:56:33;5.10;99.90
314;DHT22;143;51.634;7.112;2023-03-16T06:58:58;5.10;99.90
314;DHT22;143;51.634;7.112;2023-03-16T07:01:24;5.10;99.90
314;DHT22;143;51.634;7.112;2023-03-16T07:03:50;5.10;99.90
314;DHT22;143;51.634;7.112;2023-03-16T07:06:16;5.20;99.90
314;DHT22;143;51.634;7.112;2023-03-16T07:08:42;5.20;99.90
314;DHT22;143;51.634;7.112;2023-03-16T07:11:08;5.40;99.90
314;DHT22;143;51.634;7.112;2023-03-16T07:13:34;5.10;99.90
314;DHT22;143;51.634;7.112;2023-03-16T07:16:00;5.30;99.90
314;DHT22;143;51.634;7.112;2023-03-16T07:18:26;5.10;99.90
314;DHT22;143;51.634;7.112;2023-03-16T07:20:53;5.30;99.90
314;DHT22;143;51.634;7.112;2023-03-16T07:23:19;5.20;99.90
314;DHT22;143;51.634;7.112;2023-03-16T07:25:45;5.40;99.90
314;DHT22;143;51.634;7.112;2023-03-16T07:28:10;5.30;99.90
314;DHT22;143;51.634;7.112;2023-03-16T07:30:36;5.40;99.90
314;DHT22;143;51.634;7.112;2023-03-16T07:33:03;5.50;99.90
314;DHT22;143;51.634;7.112;2023-03-16T07:35:30;5.20;99.90
314;DHT22;143;51.634;7.112;2023-03-16T07:37:56;5.60;99.90
314;DHT22;143;51.634;7.112;2023-03-16T07:40:22;5.60;99.90
314;DHT22;143;51.634;7.112;2023-03-16T07:42:48;5.50;99.90
314;DHT22;143;51.634;7.112;2023-03-16T07:45:14;5.70;99.90
314;DHT22;143;51.634;7.112;2023-03-16T07:47:42;5.80;99.90
314;DHT22;143;51.634;7.112;2023-03-16T07:50:09;5.80;99.90
314;DHT22;143;51.634;7.112;2023-03-16T07:52:35;5.90;94.00
314;DHT22;143;51.634;7.112;2023-03-16T07:55:01;5.80;72.20
314;DHT22;143;51.634;7.112;2023-03-16T07:57:27;5.90;73.40
314;DHT22;143;51.634;7.112;2023-03-16T07:59:52;6.20;54.70
314;DHT22;143;51.634;7.112;2023-03-16T08:02:19;6.30;54.90
314;DHT22;143;51.634;7.112;2023-03-16T08:04:46;6.20;50.70
314;DHT22;143;51.634;7.112;2023-03-16T08:07:13;6.30;48.10
314;DHT22;143;51.634;7.112;2023-03-16T08:09:39;6.40;47.10
314;DHT22;143;51.634;7.112;2023-03-16T08:12:06;6.40;14.20
314;DHT22;143;51.634;7.112;2023-03-16T08:14:32;6.40;1.00
314;DHT22;143;51.634;7.112;2023-03-16T08:17:02;6.20;1.00
314;DHT22;143;51.634;7.112;2023-03-16T08:19:28;6.60;1.00
314;DHT22;143;51.634;7.112;2023-03-16T08:21:54;6.50;1.00
314;DHT22;143;51.634;7.112;2023-03-16T08:24:21;6.40;1.00
314;DHT22;143;51.634;7.112;2023-03-16T08:26:46;6.70;1.00
314;DHT22;143;51.634;7.112;2023-03-16T08:29:12;6.70;1.00
314;DHT22;143;51.634;7.112;2023-03-16T08:31:39;6.70;1.00
314;DHT22;143;51.634;7.112;2023-03-16T08:34:08;6.60;1.00
314;DHT22;143;51.634;7.112;2023-03-16T08:36:34;6.70;1.00
314;DHT22;143;51.634;7.112;2023-03-16T08:39:02;6.70;1.00
314;DHT22;143;51.634;7.112;2023-03-16T08:41:30;6.70;1.00
314;DHT22;143;51.634;7.112;2023-03-16T08:43:57;6.80;1.00
314;DHT22;143;51.634;7.112;2023-03-16T08:46:23;7.10;1.00
314;DHT22;143;51.634;7.112;2023-03-16T08:48:49;6.90;1.00
314;DHT22;143;51.634;7.112;2023-03-16T08:51:15;7.00;1.00
314;DHT22;143;51.634;7.112;2023-03-16T08:53:42;6.70;1.00
314;DHT22;143;51.634;7.112;2023-03-16T08:56:10;6.70;1.00
314;DHT22;143;51.634;7.112;2023-03-16T08:58:37;6.80;1.00
314;DHT22;143;51.634;7.112;2023-03-16T09:01:04;7.10;1.00
314;DHT22;143;51.634;7.112;2023-03-16T09:03:33;7.00;1.00
314;DHT22;143;51.634;7.112;2023-03-16T09:06:04;7.00;1.00
314;DHT22;143;51.634;7.112;2023-03-16T09:08:30;6.80;1.00
314;DHT22;143;51.634;7.112;2023-03-16T09:11:00;7.00;1.00
314;DHT22;143;51.634;7.112;2023-03-16T09:13:27;6.90;1.00
314;DHT22;143;51.634;7.112;2023-03-16T09:15:53;7.00;1.00
314;DHT22;143;51.634;7.112;2023-03-16T09:18:18;6.60;1.00
314;DHT22;143;51.634;7.112;2023-03-16T09:20:45;6.70;1.00
314;DHT22;143;51.634;7.112;2023-03-16T09:23:12;6.70;1.00
314;DHT22;143;51.634;7.112;2023-03-16T09:25:38;6.80;1.00
314;DHT22;143;51.634;7.112;2023-03-16T09:28:04;7.00;1.00
314;DHT22;143;51.634;7.112;2023-03-16T09:30:30;6.90;1.00
314;DHT22;143;51.634;7.112;2023-03-16T09:32:56;6.90;1.00
314;DHT22;143;51.634;7.112;2023-03-16T09:35:22;7.00;1.00
314;DHT22;143;51.634;7.112;2023-03-16T09:37:48;6.90;1.00
314;DHT22;143;51.634;7.112;2023-03-16T09:40:22;6.90;1.00
314;DHT22;143;51.634;7.112;2023-03-16T09:43:19;7.00;1.00
314;DHT22;143;51.634;7.112;2023-03-16T09:45:50;7.30;1.00
314;DHT22;143;51.634;7.112;2023-03-16T09:48:18;7.30;1.00
314;DHT22;143;51.634;7.112;2023-03-16T09:50:46;7.40;1.00
314;DHT22;143;51.634;7.112;2023-03-16T09:53:33;7.30;1.00
314;DHT22;143;51.634;7.112;2023-03-16T09:56:15;7.30;1.00
314;DHT22;143;51.634;7.112;2023-03-16T09:59:12;7.30;1.00
314;DHT22;143;51.634;7.112;2023-03-16T10:05:23;7.30;1.00
314;DHT22;143;51.634;7.112;2023-03-16T10:16:20;7.50;1.00
314;DHT22;143;51.634;7.112;2023-03-16T10:18:54;7.70;1.00
314;DHT22;143;51.634;7.112;2023-03-16T10:21:23;7.40;1.00
314;DHT22;143;51.634;7.112;2023-03-16T10:23:51;7.60;1.00
314;DHT22;143;51.634;7.112;2023-03-16T10:26:37;7.60;1.00
314;DHT22;143;51.634;7.112;2023-03-16T10:29:11;7.60;1.00
314;DHT22;143;51.634;7.112;2023-03-16T10:31:38;7.50;1.00
314;DHT22;143;51.634;7.112;2023-03-16T10:34:06;7.60;1.00
314;DHT22;143;51.634;7.112;2023-03-16T10:36:39;7.60;1.00
314;DHT22;143;51.634;7.112;2023-03-16T10:39:09;7.60;1.00
314;DHT22;143;51.634;7.112;2023-03-16T10:41:38;7.60;1.00
314;DHT22;143;51.634;7.112;2023-03-16T10:44:25;7.80;1.00
314;DHT22;143;51.634;7.112;2023-03-16T10:47:05;7.80;1.00
314;DHT22;143;51.634;7.112;2023-03-16T10:49:39;7.80;1.00
314;DHT22;143;51.634;7.112;2023-03-16T10:52:18;7.90;1.00
314;DHT22;143;51.634;7.112;2023-03-16T10:54:52;7.70;1.00
314;DHT22;143;51.634;7.112;2023-03-16T10:59:50;8.20;1.00
314;DHT22;143;51.634;7.112;2023-03-16T11:02:19;8.00;1.00
314;DHT22;143;51.634;7.112;2023-03-16T11:04:47;8.10;1.00
314;DHT22;143;51.634;7.112;2023-03-16T11:07:18;8.10;1.00
314;DHT22;143;51.634;7.112;2023-03-16T11:09:44;8.00;1.00
314;DHT22;143;51.634;7.112;2023-03-16T11:14:46;8.10;1.00
314;DHT22;143;51.634;7.112;2023-03-16T11:17:17;8.10;1.00
314;DHT22;143;51.634;7.112;2023-03-16T11:19:49;8.30;1.00
314;DHT22;143;51.634;7.112;2023-03-16T11:22:19;8.30;1.00
314;DHT22;143;51.634;7.112;2023-03-16T11:25:12;8.30;1.00
314;DHT22;143;51.634;7.112;2023-03-16T11:27:48;8.40;1.00
314;DHT22;143;51.634;7.112;2023-03-16T11:30:40;8.50;1.00
314;DHT22;143;51.634;7.112;2023-03-16T11:33:09;8.80;1.00
314;DHT22;143;51.634;7.112;2023-03-16T11:35:48;8.80;1.00
314;DHT22;143;51.634;7.112;2023-03-16T11:38:25;9.00;1.00
314;DHT22;143;51.634;7.112;2023-03-16T11:41:14;9.20;1.00
314;DHT22;143;51.634;7.112;2023-03-16T11:47:08;9.40;1.00
314;DHT22;143;51.634;7.112;2023-03-16T11:55:25;9.40;1.00
314;DHT22;143;51.634;7.112;2023-03-16T11:58:09;9.50;1.00
314;DHT22;143;51.634;7.112;2023-03-16T12:03:29;9.90;1.00
314;DHT22;143;51.634;7.112;2023-03-16T12:11:53;10.50;1.00
314;DHT22;143;51.634;7.112;2023-03-16T12:14:42;10.60;1.00
314;DHT22;143;51.634;7.112;2023-03-16T12:17:17;10.70;1.00
314;DHT22;143;51.634;7.112;2023-03-16T12:22:25;11.00;1.00
314;DHT22;143;51.634;7.112;2023-03-16T12:24:52;10.80;1.00
314;DHT22;143;51.634;7.112;2023-03-16T12:27:25;10.90;1.00
314;DHT22;143;51.634;7.112;2023-03-16T12:32:52;10.80;1.00
314;DHT22;143;51.634;7.112;2023-03-16T12:38:14;10.70;1.00
314;DHT22;143;51.634;7.112;2023-03-16T12:41:12;10.70;1.00
314;DHT22;143;51.634;7.112;2023-03-16T12:43:55;10.70;1.00
314;DHT22;143;51.634;7.112;2023-03-16T12:47:18;10.70;1.00
314;DHT22;143;51.634;7.112;2023-03-16T12:49:18;10.60;1.00
314;DHT22;143;51.634;7.112;2023-03-16T12:51:45;10.40;1.00
314;DHT22;143;51.634;7.112;2023-03-16T12:54:21;10.60;1.00
314;DHT22;143;51.634;7.112;2023-03-16T12:56:50;10.60;1.00
314;DHT22;143;51.634;7.112;2023-03-16T12:59:23;10.60;1.00
314;DHT22;143;51.634;7.112;2023-03-16T13:01:56;10.60;1.00
314;DHT22;143;51.634;7.112;2023-03-16T13:07:06;10.70;1.00
314;DHT22;143;51.634;7.112;2023-03-16T13:09:35;10.60;1.00
314;DHT22;143;51.634;7.112;2023-03-16T13:12:07;10.60;1.00
314;DHT22;143;51.634;7.112;2023-03-16T13:14:43;10.70;1.00
314;DHT22;143;51.634;7.112;2023-03-16T13:19:42;10.70;1.00
314;DHT22;143;51.634;7.112;2023-03-16T13:25:10;10.70;1.00
314;DHT22;143;51.634;7.112;2023-03-16T13:27:38;10.90;1.00
314;DHT22;143;51.634;7.112;2023-03-16T13:30:28;11.00;1.00
314;DHT22;143;51.634;7.112;2023-03-16T13:32:59;11.00;1.00
314;DHT22;143;51.634;7.112;2023-03-16T13:35:28;11.30;1.00
314;DHT22;143;51.634;7.112;2023-03-16T13:38:04;11.20;1.00
314;DHT22;143;51.634;7.112;2023-03-16T13:40:30;11.40;1.00
314;DHT22;143;51.634;7.112;2023-03-16T13:42:57;11.60;1.00
314;DHT22;143;51.634;7.112;2023-03-16T13:45:31;11.80;1.00
314;DHT22;143;51.634;7.112;2023-03-16T13:47:59;11.90;1.00
314;DHT22;143;51.634;7.112;2023-03-16T13:50:26;11.90;1.00
314;DHT22;143;51.634;7.112;2023-03-16T13:53:02;11.90;1.00
314;DHT22;143;51.634;7.112;2023-03-16T13:55:34;11.80;1.00
314;DHT22;143;51.634;7.112;2023-03-16T13:58:01;11.90;1.00
314;DHT22;143;51.634;7.112;2023-03-16T14:00:34;11.90;1.00
314;DHT22;143;51.634;7.112;2023-03-16T14:03:15;12.00;1.00
314;DHT22;143;51.634;7.112;2023-03-16T14:05:42;12.00;1.00
314;DHT22;143;51.634;7.112;2023-03-16T14:08:20;12.00;1.00
314;DHT22;143;51.634;7.112;2023-03-16T14:10:47;12.00;1.00
314;DHT22;143;51.634;7.112;2023-03-16T14:15:58;12.00;1.00
314;DHT22;143;51.634;7.112;2023-03-16T14:18:40;12.10;1.00
314;DHT22;143;51.634;7.112;2023-03-16T14:21:11;12.10;1.00
314;DHT22;143;51.634;7.112;2023-03-16T14:23:43;12.20;1.00
314;DHT22;143;51.634;7.112;2023-03-16T14:26:15;12.10;1.00
314;DHT22;143;51.634;7.112;2023-03-16T14:29:00;12.00;1.00
314;DHT22;143;51.634;7.112;2023-03-16T14:31:35;12.00;1.00
314;DHT22;143;51.634;7.112;2023-03-16T14:34:18;11.80;1.00
314;DHT22;143;51.634;7.112;2023-03-16T14:36:45;11.80;1.00
314;DHT22;143;51.634;7.112;2023-03-16T14:39:13;11.70;1.00
314;DHT22;143;51.634;7.112;2023-03-16T14:41:42;11.80;1.00
314;DHT22;143;51.634;7.112;2023-03-16T14:44:18;11.70;1.00
314;DHT22;143;51.634;7.112;2023-03-16T14:46:45;11.70;1.00
314;DHT22;143;51.634;7.112;2023-03-16T14:49:26;11.80;1.00
314;DHT22;143;51.634;7.112;2023-03-16T14:51:57;11.80;1.00
314;DHT22;143;51.634;7.112;2023-03-16T14:54:24;11.80;1.00
314;DHT22;143;51.634;7.112;2023-03-16T14:56:53;11.90;1.00
314;DHT22;143;51.634;7.112;2023-03-16T14:59:19;11.90;1.00
314;DHT22;143;51.634;7.112;2023-03-16T15:01:46;12.00;1.00
314;DHT22;143;51.634;7.112;2023-03-16T15:04:15;12.00;1.00
314;DHT22;143;51.634;7.112;2023-03-16T15:06:43;12.10;1.00
314;DHT22;143;51.634;7.112;2023-03-16T15:09:39;12.20;1.00
314;DHT22;143;51.634;7.112;2023-03-16T15:12:15;12.20;1.00
314;DHT22;143;51.634;7.112;2023-03-16T15:14:42;12.20;1.00
314;DHT22;143;51.634;7.112;2023-03-16T15:17:27;12.20;1.00
314;DHT22;143;51.634;7.112;2023-03-16T15:19:52;12.20;1.00
314;DHT22;143;51.634;7.112;2023-03-16T15:22:25;12.20;1.00
314;DHT22;143;51.634;7.112;2023-03-16T15:24:52;12.20;1.00
314;DHT22;143;51.634;7.112;2023-03-16T15:27:20;12.30;1.00
314;DHT22;143;51.634;7.112;2023-03-16T15:29:47;12.30;1.00
314;DHT22;143;51.634;7.112;2023-03-16T15:32:13;12.30;1.00
314;DHT22;143;51.634;7.112;2023-03-16T15:34:43;12.30;1.00
314;DHT22;143;51.634;7.112;2023-03-16T15:37:15;12.40;1.00
314;DHT22;143;51.634;7.112;2023-03-16T15:39:42;12.40;1.00
314;DHT22;143;51.634;7.112;2023-03-16T15:42:18;12.40;1.00
314;DHT22;143;51.634;7.112;2023-03-16T15:44:46;12.40;1.00
314;DHT22;143;51.634;7.112;2023-03-16T15:47:12;12.50;1.00
314;DHT22;143;51.634;7.112;2023-03-16T15:49:39;12.50;1.00
314;DHT22;143;51.634;7.112;2023-03-16T15:52:05;12.40;1.00
314;DHT22;143;51.634;7.112;2023-03-16T15:54:33;12.30;1.00
314;DHT22;143;51.634;7.112;2023-03-16T15:57:00;12.20;1.00
314;DHT22;143;51.634;7.112;2023-03-16T15:59:30;12.10;1.00
314;DHT22;143;51.634;7.112;2023-03-16T16:01:56;12.10;1.00
314;DHT22;143;51.634;7.112;2023-03-16T16:04:22;12.00;1.00
314;DHT22;143;51.634;7.112;2023-03-16T16:06:50;12.00;1.00
314;DHT22;143;51.634;7.112;2023-03-16T16:09:19;12.00;1.00
314;DHT22;143;51.634;7.112;2023-03-16T16:11:45;11.90;1.00
314;DHT22;143;51.634;7.112;2023-03-16T16:14:15;12.00;1.00
314;DHT22;143;51.634;7.112;2023-03-16T16:16:43;11.90;1.00
314;DHT22;143;51.634;7.112;2023-03-16T16:19:16;11.80;1.00
314;DHT22;143;51.634;7.112;2023-03-16T16:21:43;11.90;1.00
314;DHT22;143;51.634;7.112;2023-03-16T16:24:09;11.80;1.00
314;DHT22;143;51.634;7.112;2023-03-16T16:26:41;11.80;1.00
314;DHT22;143;51.634;7.112;2023-03-16T16:29:15;11.80;1.00
314;DHT22;143;51.634;7.112;2023-03-16T16:31:41;11.70;1.00
314;DHT22;143;51.634;7.112;2023-03-16T16:34:18;11.80;1.00
314;DHT22;143;51.634;7.112;2023-03-16T16:36:46;11.80;1.00
314;DHT22;143;51.634;7.112;2023-03-16T16:39:12;11.80;1.00
314;DHT22;143;51.634;7.112;2023-03-16T16:41:39;11.80;1.00
314;DHT22;143;51.634;7.112;2023-03-16T16:44:22;11.80;1.00
314;DHT22;143;51.634;7.112;2023-03-16T16:46:49;11.70;1.00
314;DHT22;143;51.634;7.112;2023-03-16T16:49:25;11.70;1.00
314;DHT22;143;51.634;7.112;2023-03-16T16:51:53;11.70;1.00
314;DHT22;143;51.634;7.112;2023-03-16T16:54:21;11.60;1.00
314;DHT22;143;51.634;7.112;2023-03-16T16:56:49;11.50;1.00
314;DHT22;143;51.634;7.112;2023-03-16T17:01:45;11.40;1.00
314;DHT22;143;51.634;7.112;2023-03-16T17:04:19;11.40;1.00
314;DHT22;143;51.634;7.112;2023-03-16T17:06:48;11.30;1.00
314;DHT22;143;51.634;7.112;2023-03-16T17:09:16;11.20;1.00
314;DHT22;143;51.634;7.112;2023-03-16T17:11:43;11.20;1.00
314;DHT22;143;51.634;7.112;2023-03-16T17:14:15;11.30;1.00
314;DHT22;143;51.634;7.112;2023-03-16T17:16:41;11.30;1.00
314;DHT22;143;51.634;7.112;2023-03-16T17:19:27;11.00;1.00
314;DHT22;143;51.634;7.112;2023-03-16T17:21:55;10.90;1.00
314;DHT22;143;51.634;7.112;2023-03-16T17:24:22;10.90;1.00
314;DHT22;143;51.634;7.112;2023-03-16T17:26:53;10.90;1.00
314;DHT22;143;51.634;7.112;2023-03-16T17:31:48;11.00;1.00
314;DHT22;143;51.634;7.112;2023-03-16T17:34:21;10.90;1.00
314;DHT22;143;51.634;7.112;2023-03-16T17:36:48;10.70;1.00
314;DHT22;143;51.634;7.112;2023-03-16T17:39:18;10.90;1.00
314;DHT22;143;51.634;7.112;2023-03-16T17:41:47;10.50;1.00
314;DHT22;143;51.634;7.112;2023-03-16T17:44:13;10.60;1.00
314;DHT22;143;51.634;7.112;2023-03-16T17:46:39;10.20;1.00
314;DHT22;143;51.634;7.112;2023-03-16T17:49:12;10.60;1.00
314;DHT22;143;51.634;7.112;2023-03-16T17:51:38;10.40;1.00
314;DHT22;143;51.634;7.112;2023-03-16T17:54:04;10.40;1.00
314;DHT22;143;51.634;7.112;2023-03-16T17:56:31;10.30;1.00
314;DHT22;143;51.634;7.112;2023-03-16T17:58:58;10.20;1.00
314;DHT22;143;51.634;7.112;2023-03-16T18:01:27;10.50;1.00
314;DHT22;143;51.634;7.112;2023-03-16T18:03:55;10.20;1.00
314;DHT22;143;51.634;7.112;2023-03-16T18:06:22;10.40;1.00
314;DHT22;143;51.634;7.112;2023-03-16T18:08:50;10.10;1.00
314;DHT22;143;51.634;7.112;2023-03-16T18:11:20;10.20;1.00
314;DHT22;143;51.634;7.112;2023-03-16T18:13:49;10.20;1.00